Adrian, Pennsylvania
Current Conditions -  °F | °C
As of 7:35 PM on Thursday 18 Dec 2014 (Local Time) from KBTP Reporting Station
Overcast Overcast  
Wind Chill: 20°   Ceiling: 1600
Heat Index: 28°   Visibility: 10mi
Dew Point: 23°   Wind: 8mph
Humidity: 80%   Direction: 250°WSW
Pressure: 30.15"   Gusts: NA
Location:  40.88°N, 79.54°W
Report Text: KBTP 190035Z AUTO 25007KT 10SM BKN016 OVC022 M02/M05 A3015 RMK AO1
Loading
Personal Weather Stations






























Interactive Weather Map New forecast layout! Learn more

10-Day Weather Forecast

Advertisements
Track Severe Weather on mobile